sensor_id;sensor_type;location;lat;lon;timestamp;temperature;humidity
10089;DHT22;51898;49.864;8.550;2022-10-16T00:01:49;15.50;99.90
10089;DHT22;51898;49.864;8.550;2022-10-16T00:04:51;15.50;99.90
10089;DHT22;51898;49.864;8.550;2022-10-16T00:07:52;15.50;99.90
10089;DHT22;51898;49.864;8.550;2022-10-16T00:11:00;15.50;99.90
10089;DHT22;51898;49.864;8.550;2022-10-16T00:14:04;15.50;99.90
10089;DHT22;51898;49.864;8.550;2022-10-16T00:17:06;15.50;99.90
10089;DHT22;51898;49.864;8.550;2022-10-16T00:20:08;15.50;99.90
10089;DHT22;51898;49.864;8.550;2022-10-16T00:23:09;15.50;99.90
10089;DHT22;51898;49.864;8.550;2022-10-16T00:26:13;15.50;99.90
10089;DHT22;51898;49.864;8.550;2022-10-16T00:29:15;15.50;99.90
10089;DHT22;51898;49.864;8.550;2022-10-16T00:32:18;15.50;99.90
10089;DHT22;51898;49.864;8.550;2022-10-16T00:35:20;15.50;99.90
10089;DHT22;51898;49.864;8.550;2022-10-16T00:38:22;15.50;99.90
10089;DHT22;51898;49.864;8.550;2022-10-16T00:41:27;15.50;99.90
10089;DHT22;51898;49.864;8.550;2022-10-16T00:44:53;15.50;99.90
10089;DHT22;51898;49.864;8.550;2022-10-16T00:47:56;15.40;99.90
10089;DHT22;51898;49.864;8.550;2022-10-16T00:50:58;15.40;99.90
10089;DHT22;51898;49.864;8.550;2022-10-16T00:54:01;15.40;99.90
10089;DHT22;51898;49.864;8.550;2022-10-16T00:57:05;15.40;99.90
10089;DHT22;51898;49.864;8.550;2022-10-16T01:03:35;15.40;99.90
10089;DHT22;51898;49.864;8.550;2022-10-16T01:10:13;15.30;99.90
10089;DHT22;51898;49.864;8.550;2022-10-16T01:13:21;15.30;99.90
10089;DHT22;51898;49.864;8.550;2022-10-16T01:16:40;15.30;99.90
10089;DHT22;51898;49.864;8.550;2022-10-16T01:20:00;15.20;99.90
10089;DHT22;51898;49.864;8.550;2022-10-16T01:27:11;15.30;99.90
10089;DHT22;51898;49.864;8.550;2022-10-16T01:30:22;15.20;99.90
10089;DHT22;51898;49.864;8.550;2022-10-16T01:33:28;15.20;99.90
10089;DHT22;51898;49.864;8.550;2022-10-16T01:36:46;15.20;99.90
10089;DHT22;51898;49.864;8.550;2022-10-16T01:39:54;15.20;99.90
10089;DHT22;51898;49.864;8.550;2022-10-16T01:43:04;15.20;99.90
10089;DHT22;51898;49.864;8.550;2022-10-16T01:46:08;15.30;99.90
10089;DHT22;51898;49.864;8.550;2022-10-16T01:49:11;15.30;99.90
10089;DHT22;51898;49.864;8.550;2022-10-16T01:52:17;15.30;99.90
10089;DHT22;51898;49.864;8.550;2022-10-16T01:55:33;15.30;99.90
10089;DHT22;51898;49.864;8.550;2022-10-16T01:58:41;15.30;99.90
10089;DHT22;51898;49.864;8.550;2022-10-16T02:01:50;15.30;99.90
10089;DHT22;51898;49.864;8.550;2022-10-16T02:05:04;15.30;99.90
10089;DHT22;51898;49.864;8.550;2022-10-16T02:08:06;15.30;99.90
10089;DHT22;51898;49.864;8.550;2022-10-16T02:11:08;15.30;99.90
10089;DHT22;51898;49.864;8.550;2022-10-16T02:14:09;15.40;99.90
10089;DHT22;51898;49.864;8.550;2022-10-16T02:17:13;15.30;99.90
10089;DHT22;51898;49.864;8.550;2022-10-16T02:20:15;15.40;99.90
10089;DHT22;51898;49.864;8.550;2022-10-16T02:26:46;15.40;99.90
10089;DHT22;51898;49.864;8.550;2022-10-16T02:29:54;15.40;99.90
10089;DHT22;51898;49.864;8.550;2022-10-16T02:33:01;15.40;99.90
10089;DHT22;51898;49.864;8.550;2022-10-16T02:36:04;15.40;99.90
10089;DHT22;51898;49.864;8.550;2022-10-16T02:39:07;15.50;99.90
10089;DHT22;51898;49.864;8.550;2022-10-16T02:42:13;15.50;99.90
10089;DHT22;51898;49.864;8.550;2022-10-16T02:45:15;15.50;99.90
10089;DHT22;51898;49.864;8.550;2022-10-16T02:48:16;15.50;99.90
10089;DHT22;51898;49.864;8.550;2022-10-16T02:51:18;15.50;99.90
10089;DHT22;51898;49.864;8.550;2022-10-16T02:54:20;15.50;99.90
10089;DHT22;51898;49.864;8.550;2022-10-16T02:57:21;15.50;99.90
10089;DHT22;51898;49.864;8.550;2022-10-16T03:00:23;15.50;99.90
10089;DHT22;51898;49.864;8.550;2022-10-16T03:03:25;15.60;99.90
10089;DHT22;51898;49.864;8.550;2022-10-16T03:06:27;15.50;99.90
10089;DHT22;51898;49.864;8.550;2022-10-16T03:09:29;15.50;99.90
10089;DHT22;51898;49.864;8.550;2022-10-16T03:12:30;15.50;99.90
10089;DHT22;51898;49.864;8.550;2022-10-16T03:15:32;15.60;99.90
10089;DHT22;51898;49.864;8.550;2022-10-16T03:18:33;15.60;99.90
10089;DHT22;51898;49.864;8.550;2022-10-16T03:21:35;15.60;99.90
10089;DHT22;51898;49.864;8.550;2022-10-16T03:24:37;15.60;99.90
10089;DHT22;51898;49.864;8.550;2022-10-16T03:27:38;15.50;99.90
10089;DHT22;51898;49.864;8.550;2022-10-16T03:30:40;15.60;99.90
10089;DHT22;51898;49.864;8.550;2022-10-16T03:33:44;15.60;99.90
10089;DHT22;51898;49.864;8.550;2022-10-16T03:36:46;15.60;99.90
10089;DHT22;51898;49.864;8.550;2022-10-16T03:39:47;15.60;99.90
10089;DHT22;51898;49.864;8.550;2022-10-16T03:42:49;15.60;99.90
10089;DHT22;51898;49.864;8.550;2022-10-16T03:45:51;15.60;99.90
10089;DHT22;51898;49.864;8.550;2022-10-16T03:48:53;15.70;99.90
10089;DHT22;51898;49.864;8.550;2022-10-16T03:51:54;15.70;99.90
10089;DHT22;51898;49.864;8.550;2022-10-16T03:54:56;15.70;99.90
10089;DHT22;51898;49.864;8.550;2022-10-16T03:57:57;15.70;99.90
10089;DHT22;51898;49.864;8.550;2022-10-16T04:00:59;15.70;99.90
10089;DHT22;51898;49.864;8.550;2022-10-16T04:04:01;15.70;99.90
10089;DHT22;51898;49.864;8.550;2022-10-16T04:07:02;15.70;99.90
10089;DHT22;51898;49.864;8.550;2022-10-16T04:10:04;15.70;99.90
10089;DHT22;51898;49.864;8.550;2022-10-16T04:13:06;15.70;99.90
10089;DHT22;51898;49.864;8.550;2022-10-16T04:16:08;15.70;99.90
10089;DHT22;51898;49.864;8.550;2022-10-16T04:19:10;15.70;99.90
10089;DHT22;51898;49.864;8.550;2022-10-16T04:22:12;15.70;99.90
10089;DHT22;51898;49.864;8.550;2022-10-16T04:25:14;15.70;99.90
10089;DHT22;51898;49.864;8.550;2022-10-16T04:28:15;15.70;99.90
10089;DHT22;51898;49.864;8.550;2022-10-16T04:31:17;15.80;99.90
10089;DHT22;51898;49.864;8.550;2022-10-16T04:34:19;15.80;99.90
10089;DHT22;51898;49.864;8.550;2022-10-16T04:37:24;15.80;99.90
10089;DHT22;51898;49.864;8.550;2022-10-16T04:40:26;15.70;99.90
10089;DHT22;51898;49.864;8.550;2022-10-16T04:43:28;15.70;99.90
10089;DHT22;51898;49.864;8.550;2022-10-16T04:46:34;15.70;99.90
10089;DHT22;51898;49.864;8.550;2022-10-16T04:49:36;15.70;99.90
10089;DHT22;51898;49.864;8.550;2022-10-16T04:52:37;15.70;99.90
10089;DHT22;51898;49.864;8.550;2022-10-16T04:55:40;15.70;99.90
10089;DHT22;51898;49.864;8.550;2022-10-16T04:58:42;15.70;99.90
10089;DHT22;51898;49.864;8.550;2022-10-16T05:01:44;15.70;99.90
10089;DHT22;51898;49.864;8.550;2022-10-16T05:04:46;15.70;99.90
10089;DHT22;51898;49.864;8.550;2022-10-16T05:07:48;15.70;99.90
10089;DHT22;51898;49.864;8.550;2022-10-16T05:10:50;15.70;99.90
10089;DHT22;51898;49.864;8.550;2022-10-16T05:13:52;15.70;99.90
10089;DHT22;51898;49.864;8.550;2022-10-16T05:16:56;15.70;99.90
10089;DHT22;51898;49.864;8.550;2022-10-16T05:19:58;15.70;99.90
10089;DHT22;51898;49.864;8.550;2022-10-16T05:23:00;15.60;99.90
10089;DHT22;51898;49.864;8.550;2022-10-16T05:26:01;15.50;99.90
10089;DHT22;51898;49.864;8.550;2022-10-16T05:29:03;15.50;99.90
10089;DHT22;51898;49.864;8.550;2022-10-16T05:32:05;15.50;99.90
10089;DHT22;51898;49.864;8.550;2022-10-16T05:35:07;15.50;99.90
10089;DHT22;51898;49.864;8.550;2022-10-16T05:38:13;15.50;99.90
10089;DHT22;51898;49.864;8.550;2022-10-16T05:41:15;15.50;99.90
10089;DHT22;51898;49.864;8.550;2022-10-16T05:44:16;15.50;99.90
10089;DHT22;51898;49.864;8.550;2022-10-16T05:47:18;15.50;99.90
10089;DHT22;51898;49.864;8.550;2022-10-16T05:50:22;15.40;99.90
10089;DHT22;51898;49.864;8.550;2022-10-16T05:53:23;15.40;99.90
10089;DHT22;51898;49.864;8.550;2022-10-16T05:56:26;15.40;99.90
10089;DHT22;51898;49.864;8.550;2022-10-16T05:59:28;15.40;99.90
10089;DHT22;51898;49.864;8.550;2022-10-16T06:02:30;15.30;99.90
10089;DHT22;51898;49.864;8.550;2022-10-16T06:05:31;15.40;99.90
10089;DHT22;51898;49.864;8.550;2022-10-16T06:08:33;15.40;99.90
10089;DHT22;51898;49.864;8.550;2022-10-16T06:11:34;15.40;99.90
10089;DHT22;51898;49.864;8.550;2022-10-16T06:14:37;15.40;99.90
10089;DHT22;51898;49.864;8.550;2022-10-16T06:17:39;15.40;99.90
10089;DHT22;51898;49.864;8.550;2022-10-16T06:20:40;15.40;99.90
10089;DHT22;51898;49.864;8.550;2022-10-16T06:23:42;15.40;99.90
10089;DHT22;51898;49.864;8.550;2022-10-16T06:26:44;15.40;99.90
10089;DHT22;51898;49.864;8.550;2022-10-16T06:29:46;15.40;99.90
10089;DHT22;51898;49.864;8.550;2022-10-16T06:32:47;15.50;99.90
10089;DHT22;51898;49.864;8.550;2022-10-16T06:35:49;15.50;99.90
10089;DHT22;51898;49.864;8.550;2022-10-16T06:38:50;15.50;99.90
10089;DHT22;51898;49.864;8.550;2022-10-16T06:41:52;15.60;99.90
10089;DHT22;51898;49.864;8.550;2022-10-16T06:44:54;15.50;99.90
10089;DHT22;51898;49.864;8.550;2022-10-16T06:47:55;15.50;99.90
10089;DHT22;51898;49.864;8.550;2022-10-16T06:51:17;15.60;99.90
10089;DHT22;51898;49.864;8.550;2022-10-16T06:54:19;15.60;99.90
10089;DHT22;51898;49.864;8.550;2022-10-16T06:57:21;15.60;99.90
10089;DHT22;51898;49.864;8.550;2022-10-16T07:00:22;15.70;99.90
10089;DHT22;51898;49.864;8.550;2022-10-16T07:03:25;15.70;99.90
10089;DHT22;51898;49.864;8.550;2022-10-16T07:06:27;15.80;99.90
10089;DHT22;51898;49.864;8.550;2022-10-16T07:09:32;15.80;99.90
10089;DHT22;51898;49.864;8.550;2022-10-16T07:12:33;15.90;99.90
10089;DHT22;51898;49.864;8.550;2022-10-16T07:15:35;15.90;99.90
10089;DHT22;51898;49.864;8.550;2022-10-16T07:18:37;16.00;99.90
10089;DHT22;51898;49.864;8.550;2022-10-16T07:21:40;16.00;99.90
10089;DHT22;51898;49.864;8.550;2022-10-16T07:24:42;16.00;99.90
10089;DHT22;51898;49.864;8.550;2022-10-16T07:27:48;16.10;99.90
10089;DHT22;51898;49.864;8.550;2022-10-16T07:30:50;16.10;99.90
10089;DHT22;51898;49.864;8.550;2022-10-16T07:33:52;16.20;99.90
10089;DHT22;51898;49.864;8.550;2022-10-16T07:36:53;16.30;99.90
10089;DHT22;51898;49.864;8.550;2022-10-16T07:39:55;16.20;99.90
10089;DHT22;51898;49.864;8.550;2022-10-16T07:42:56;16.20;99.90
10089;DHT22;51898;49.864;8.550;2022-10-16T07:45:58;16.30;99.90
10089;DHT22;51898;49.864;8.550;2022-10-16T07:49:06;16.30;99.90
10089;DHT22;51898;49.864;8.550;2022-10-16T07:52:07;16.30;99.90
10089;DHT22;51898;49.864;8.550;2022-10-16T07:55:09;16.40;99.90
10089;DHT22;51898;49.864;8.550;2022-10-16T07:58:10;16.40;99.90
10089;DHT22;51898;49.864;8.550;2022-10-16T08:01:14;16.40;99.90
10089;DHT22;51898;49.864;8.550;2022-10-16T08:04:16;16.50;99.90
10089;DHT22;51898;49.864;8.550;2022-10-16T08:07:18;16.60;99.90
10089;DHT22;51898;49.864;8.550;2022-10-16T08:10:21;16.60;99.90
10089;DHT22;51898;49.864;8.550;2022-10-16T08:13:23;16.60;99.90
10089;DHT22;51898;49.864;8.550;2022-10-16T08:16:25;16.70;99.90
10089;DHT22;51898;49.864;8.550;2022-10-16T08:19:27;16.60;99.90
10089;DHT22;51898;49.864;8.550;2022-10-16T08:22:28;16.70;99.90
10089;DHT22;51898;49.864;8.550;2022-10-16T08:25:30;16.70;99.90
10089;DHT22;51898;49.864;8.550;2022-10-16T08:28:32;16.60;99.90
10089;DHT22;51898;49.864;8.550;2022-10-16T08:31:33;16.60;99.90
10089;DHT22;51898;49.864;8.550;2022-10-16T08:34:35;16.60;99.90
10089;DHT22;51898;49.864;8.550;2022-10-16T08:37:37;16.50;99.90
10089;DHT22;51898;49.864;8.550;2022-10-16T08:40:39;16.40;99.90
10089;DHT22;51898;49.864;8.550;2022-10-16T08:50:47;16.30;99.90
10089;DHT22;51898;49.864;8.550;2022-10-16T08:53:52;16.30;99.90
10089;DHT22;51898;49.864;8.550;2022-10-16T08:56:56;16.30;99.90
10089;DHT22;51898;49.864;8.550;2022-10-16T09:00:05;16.40;99.90
10089;DHT22;51898;49.864;8.550;2022-10-16T09:03:32;16.40;99.90
10089;DHT22;51898;49.864;8.550;2022-10-16T09:06:40;16.40;99.90
10089;DHT22;51898;49.864;8.550;2022-10-16T09:13:23;16.50;99.90
10089;DHT22;51898;49.864;8.550;2022-10-16T09:16:32;16.50;99.90
10089;DHT22;51898;49.864;8.550;2022-10-16T09:19:46;16.60;99.90
10089;DHT22;51898;49.864;8.550;2022-10-16T09:22:54;16.80;99.90
10089;DHT22;51898;49.864;8.550;2022-10-16T09:25:58;16.90;99.90
10089;DHT22;51898;49.864;8.550;2022-10-16T09:28:59;17.00;99.90
10089;DHT22;51898;49.864;8.550;2022-10-16T09:32:15;17.10;99.90
10089;DHT22;51898;49.864;8.550;2022-10-16T09:35:26;17.20;99.90
10089;DHT22;51898;49.864;8.550;2022-10-16T09:38:33;17.30;99.90
10089;DHT22;51898;49.864;8.550;2022-10-16T09:41:37;17.40;99.90
10089;DHT22;51898;49.864;8.550;2022-10-16T09:44:41;17.70;99.90
10089;DHT22;51898;49.864;8.550;2022-10-16T09:47:43;17.90;99.90
10089;DHT22;51898;49.864;8.550;2022-10-16T09:50:56;18.00;99.90
10089;DHT22;51898;49.864;8.550;2022-10-16T09:57:12;18.40;99.90
10089;DHT22;51898;49.864;8.550;2022-10-16T10:00:16;18.70;99.90
10089;DHT22;51898;49.864;8.550;2022-10-16T10:03:38;19.00;99.90
10089;DHT22;51898;49.864;8.550;2022-10-16T10:06:46;19.20;99.90
10089;DHT22;51898;49.864;8.550;2022-10-16T10:09:48;19.40;99.90
10089;DHT22;51898;49.864;8.550;2022-10-16T10:12:50;19.50;99.90
10089;DHT22;51898;49.864;8.550;2022-10-16T10:15:52;19.40;99.90
10089;DHT22;51898;49.864;8.550;2022-10-16T10:18:58;19.30;99.90
10089;DHT22;51898;49.864;8.550;2022-10-16T10:22:00;19.40;99.90
10089;DHT22;51898;49.864;8.550;2022-10-16T10:38:11;19.60;99.90
10089;DHT22;51898;49.864;8.550;2022-10-16T10:41:39;19.50;99.90
10089;DHT22;51898;49.864;8.550;2022-10-16T10:48:50;19.20;99.90
10089;DHT22;51898;49.864;8.550;2022-10-16T10:51:58;19.20;99.90
10089;DHT22;51898;49.864;8.550;2022-10-16T10:55:42;19.30;99.90
10089;DHT22;51898;49.864;8.550;2022-10-16T11:05:33;19.70;99.90
10089;DHT22;51898;49.864;8.550;2022-10-16T11:08:48;19.90;99.90
10089;DHT22;51898;49.864;8.550;2022-10-16T11:11:58;20.10;99.90
10089;DHT22;51898;49.864;8.550;2022-10-16T11:18:30;20.30;99.90
10089;DHT22;51898;49.864;8.550;2022-10-16T11:21:41;20.30;99.90
10089;DHT22;51898;49.864;8.550;2022-10-16T11:25:17;20.50;99.90
10089;DHT22;51898;49.864;8.550;2022-10-16T11:28:24;20.70;99.90
10089;DHT22;51898;49.864;8.550;2022-10-16T11:31:42;20.60;99.90
10089;DHT22;51898;49.864;8.550;2022-10-16T11:34:48;20.60;99.90
10089;DHT22;51898;49.864;8.550;2022-10-16T11:37:53;20.50;99.90
10089;DHT22;51898;49.864;8.550;2022-10-16T11:41:03;20.50;99.90
10089;DHT22;51898;49.864;8.550;2022-10-16T11:44:36;20.40;99.90
10089;DHT22;51898;49.864;8.550;2022-10-16T11:47:58;20.40;99.90
10089;DHT22;51898;49.864;8.550;2022-10-16T11:51:16;20.40;99.90
10089;DHT22;51898;49.864;8.550;2022-10-16T11:54:32;20.40;99.90
10089;DHT22;51898;49.864;8.550;2022-10-16T11:57:41;20.70;99.90
10089;DHT22;51898;49.864;8.550;2022-10-16T12:04:36;20.80;99.90
10089;DHT22;51898;49.864;8.550;2022-10-16T12:11:31;20.70;99.90
10089;DHT22;51898;49.864;8.550;2022-10-16T12:14:36;20.70;99.90
10089;DHT22;51898;49.864;8.550;2022-10-16T12:17:58;20.90;99.90
10089;DHT22;51898;49.864;8.550;2022-10-16T12:21:00;20.80;99.90
10089;DHT22;51898;49.864;8.550;2022-10-16T12:24:39;20.80;99.90
10089;DHT22;51898;49.864;8.550;2022-10-16T12:27:42;20.80;99.90
10089;DHT22;51898;49.864;8.550;2022-10-16T12:30:53;20.80;99.90
10089;DHT22;51898;49.864;8.550;2022-10-16T12:34:01;21.00;99.90
10089;DHT22;51898;49.864;8.550;2022-10-16T12:37:18;21.00;99.90
10089;DHT22;51898;49.864;8.550;2022-10-16T12:40:26;21.10;99.90
10089;DHT22;51898;49.864;8.550;2022-10-16T12:43:45;21.30;99.90
10089;DHT22;51898;49.864;8.550;2022-10-16T12:46:47;21.40;99.90
10089;DHT22;51898;49.864;8.550;2022-10-16T12:49:51;21.30;99.90
10089;DHT22;51898;49.864;8.550;2022-10-16T12:52:53;21.20;99.90
10089;DHT22;51898;49.864;8.550;2022-10-16T12:56:09;21.20;99.90
10089;DHT22;51898;49.864;8.550;2022-10-16T13:06:53;21.40;99.90
10089;DHT22;51898;49.864;8.550;2022-10-16T13:10:23;21.40;99.90
10089;DHT22;51898;49.864;8.550;2022-10-16T13:13:43;21.40;99.90
10089;DHT22;51898;49.864;8.550;2022-10-16T13:17:23;21.50;99.90
10089;DHT22;51898;49.864;8.550;2022-10-16T13:20:35;21.50;99.90
10089;DHT22;51898;49.864;8.550;2022-10-16T13:23:50;21.40;99.90
10089;DHT22;51898;49.864;8.550;2022-10-16T13:30:21;21.50;99.90
10089;DHT22;51898;49.864;8.550;2022-10-16T13:33:38;21.30;99.90
10089;DHT22;51898;49.864;8.550;2022-10-16T13:36:49;21.30;99.90
10089;DHT22;51898;49.864;8.550;2022-10-16T13:40:23;21.20;99.90
10089;DHT22;51898;49.864;8.550;2022-10-16T13:43:38;21.10;99.90
10089;DHT22;51898;49.864;8.550;2022-10-16T13:46:40;21.00;99.90
10089;DHT22;51898;49.864;8.550;2022-10-16T13:49:42;21.00;99.90
10089;DHT22;51898;49.864;8.550;2022-10-16T13:52:44;21.00;99.90
10089;DHT22;51898;49.864;8.550;2022-10-16T13:55:46;21.00;99.90
10089;DHT22;51898;49.864;8.550;2022-10-16T13:58:58;21.00;99.90
10089;DHT22;51898;49.864;8.550;2022-10-16T14:02:08;20.90;99.90
10089;DHT22;51898;49.864;8.550;2022-10-16T14:05:16;20.90;99.90
10089;DHT22;51898;49.864;8.550;2022-10-16T14:08:18;20.90;99.90
10089;DHT22;51898;49.864;8.550;2022-10-16T14:11:21;21.00;99.90
10089;DHT22;51898;49.864;8.550;2022-10-16T14:14:27;21.00;99.90
10089;DHT22;51898;49.864;8.550;2022-10-16T14:17:34;21.00;99.90
10089;DHT22;51898;49.864;8.550;2022-10-16T14:20:36;21.10;99.90
10089;DHT22;51898;49.864;8.550;2022-10-16T14:23:39;21.20;99.90
10089;DHT22;51898;49.864;8.550;2022-10-16T14:26:44;21.10;99.90
10089;DHT22;51898;49.864;8.550;2022-10-16T14:30:22;21.10;99.90
10089;DHT22;51898;49.864;8.550;2022-10-16T14:36:30;20.90;99.90
10089;DHT22;51898;49.864;8.550;2022-10-16T14:39:32;20.90;99.90
10089;DHT22;51898;49.864;8.550;2022-10-16T14:42:34;20.80;99.90
10089;DHT22;51898;49.864;8.550;2022-10-16T14:45:36;20.80;99.90
10089;DHT22;51898;49.864;8.550;2022-10-16T14:48:45;20.80;99.90
10089;DHT22;51898;49.864;8.550;2022-10-16T14:51:47;20.70;99.90
10089;DHT22;51898;49.864;8.550;2022-10-16T14:54:50;20.60;99.90
10089;DHT22;51898;49.864;8.550;2022-10-16T14:57:52;20.50;99.90
10089;DHT22;51898;49.864;8.550;2022-10-16T15:01:00;20.50;99.90
10089;DHT22;51898;49.864;8.550;2022-10-16T15:04:01;20.50;99.90
10089;DHT22;51898;49.864;8.550;2022-10-16T15:07:03;20.60;99.90
10089;DHT22;51898;49.864;8.550;2022-10-16T15:10:05;20.60;99.90
10089;DHT22;51898;49.864;8.550;2022-10-16T15:13:08;20.60;99.90
10089;DHT22;51898;49.864;8.550;2022-10-16T15:16:16;20.60;99.90
10089;DHT22;51898;49.864;8.550;2022-10-16T15:19:18;20.70;99.90
10089;DHT22;51898;49.864;8.550;2022-10-16T15:22:19;20.70;99.90
10089;DHT22;51898;49.864;8.550;2022-10-16T15:28:34;20.80;99.90
10089;DHT22;51898;49.864;8.550;2022-10-16T15:31:37;20.80;99.90
10089;DHT22;51898;49.864;8.550;2022-10-16T15:34:39;20.80;99.90
10089;DHT22;51898;49.864;8.550;2022-10-16T15:37:40;20.80;99.90
10089;DHT22;51898;49.864;8.550;2022-10-16T15:40:42;20.80;99.90
10089;DHT22;51898;49.864;8.550;2022-10-16T15:43:44;20.80;99.90
10089;DHT22;51898;49.864;8.550;2022-10-16T15:46:46;20.70;99.90
10089;DHT22;51898;49.864;8.550;2022-10-16T15:49:48;20.70;99.90
10089;DHT22;51898;49.864;8.550;2022-10-16T15:52:50;20.60;99.90
10089;DHT22;51898;49.864;8.550;2022-10-16T15:55:51;20.40;99.90
10089;DHT22;51898;49.864;8.550;2022-10-16T15:58:53;20.30;99.90
10089;DHT22;51898;49.864;8.550;2022-10-16T16:01:55;20.30;99.90
10089;DHT22;51898;49.864;8.550;2022-10-16T16:04:57;20.20;99.90
10089;DHT22;51898;49.864;8.550;2022-10-16T16:07:59;20.10;99.90
10089;DHT22;51898;49.864;8.550;2022-10-16T16:11:04;20.00;99.90
10089;DHT22;51898;49.864;8.550;2022-10-16T16:14:07;20.00;99.90
10089;DHT22;51898;49.864;8.550;2022-10-16T16:17:11;19.90;99.90
10089;DHT22;51898;49.864;8.550;2022-10-16T16:20:13;19.80;99.90
10089;DHT22;51898;49.864;8.550;2022-10-16T16:23:14;19.80;99.90
10089;DHT22;51898;49.864;8.550;2022-10-16T16:26:27;19.70;99.90
10089;DHT22;51898;49.864;8.550;2022-10-16T16:29:30;19.70;99.90
10089;DHT22;51898;49.864;8.550;2022-10-16T16:32:35;19.60;99.90
10089;DHT22;51898;49.864;8.550;2022-10-16T16:35:40;19.50;99.90
10089;DHT22;51898;49.864;8.550;2022-10-16T16:38:42;19.40;99.90
10089;DHT22;51898;49.864;8.550;2022-10-16T16:41:43;19.40;99.90
10089;DHT22;51898;49.864;8.550;2022-10-16T16:44:47;19.30;99.90
10089;DHT22;51898;49.864;8.550;2022-10-16T16:47:49;19.20;99.90
10089;DHT22;51898;49.864;8.550;2022-10-16T16:50:51;19.10;99.90
10089;DHT22;51898;49.864;8.550;2022-10-16T16:53:53;19.10;99.90
10089;DHT22;51898;49.864;8.550;2022-10-16T16:56:55;19.10;99.90
10089;DHT22;51898;49.864;8.550;2022-10-16T16:59:57;19.10;99.90
10089;DHT22;51898;49.864;8.550;2022-10-16T17:02:59;19.00;99.90
10089;DHT22;51898;49.864;8.550;2022-10-16T17:06:03;18.90;99.90
10089;DHT22;51898;49.864;8.550;2022-10-16T17:09:05;18.90;99.90
10089;DHT22;51898;49.864;8.550;2022-10-16T17:12:07;18.80;99.90
10089;DHT22;51898;49.864;8.550;2022-10-16T17:15:09;18.80;99.90
10089;DHT22;51898;49.864;8.550;2022-10-16T17:18:11;18.70;99.90
10089;DHT22;51898;49.864;8.550;2022-10-16T17:21:12;18.70;99.90
10089;DHT22;51898;49.864;8.550;2022-10-16T17:24:14;18.70;99.90
10089;DHT22;51898;49.864;8.550;2022-10-16T17:27:16;18.60;99.90
10089;DHT22;51898;49.864;8.550;2022-10-16T17:30:18;18.60;99.90
10089;DHT22;51898;49.864;8.550;2022-10-16T17:33:19;18.60;99.90
10089;DHT22;51898;49.864;8.550;2022-10-16T17:36:21;18.50;99.90
10089;DHT22;51898;49.864;8.550;2022-10-16T17:39:23;18.40;99.90
10089;DHT22;51898;49.864;8.550;2022-10-16T17:42:25;18.40;99.90
10089;DHT22;51898;49.864;8.550;2022-10-16T17:45:27;18.30;99.90
10089;DHT22;51898;49.864;8.550;2022-10-16T17:48:29;18.20;99.90
10089;DHT22;51898;49.864;8.550;2022-10-16T17:51:31;18.10;99.90
10089;DHT22;51898;49.864;8.550;2022-10-16T17:54:33;18.00;99.90
10089;DHT22;51898;49.864;8.550;2022-10-16T17:57:34;18.00;99.90
10089;DHT22;51898;49.864;8.550;2022-10-16T18:00:36;17.80;99.90
10089;DHT22;51898;49.864;8.550;2022-10-16T18:03:38;17.70;99.90
10089;DHT22;51898;49.864;8.550;2022-10-16T18:06:40;17.60;99.90
10089;DHT22;51898;49.864;8.550;2022-10-16T18:09:43;17.50;99.90
10089;DHT22;51898;49.864;8.550;2022-10-16T18:13:09;17.40;99.90
10089;DHT22;51898;49.864;8.550;2022-10-16T18:16:13;17.40;99.90
10089;DHT22;51898;49.864;8.550;2022-10-16T18:19:15;17.20;99.90
10089;DHT22;51898;49.864;8.550;2022-10-16T18:22:16;17.20;99.90
10089;DHT22;51898;49.864;8.550;2022-10-16T18:25:18;17.10;99.90
10089;DHT22;51898;49.864;8.550;2022-10-16T18:28:21;17.00;99.90
10089;DHT22;51898;49.864;8.550;2022-10-16T18:31:23;17.00;99.90
10089;DHT22;51898;49.864;8.550;2022-10-16T18:34:27;16.90;99.90
10089;DHT22;51898;49.864;8.550;2022-10-16T18:37:29;16.80;99.90
10089;DHT22;51898;49.864;8.550;2022-10-16T18:40:31;16.70;99.90
10089;DHT22;51898;49.864;8.550;2022-10-16T18:43:33;16.60;99.90
10089;DHT22;51898;49.864;8.550;2022-10-16T18:46:36;16.50;99.90
10089;DHT22;51898;49.864;8.550;2022-10-16T18:49:38;16.60;99.90
10089;DHT22;51898;49.864;8.550;2022-10-16T18:52:46;16.50;99.90
10089;DHT22;51898;49.864;8.550;2022-10-16T18:55:52;16.40;99.90
10089;DHT22;51898;49.864;8.550;2022-10-16T18:58:53;16.30;99.90
10089;DHT22;51898;49.864;8.550;2022-10-16T19:01:55;16.30;99.90
10089;DHT22;51898;49.864;8.550;2022-10-16T19:04:58;16.30;99.90
10089;DHT22;51898;49.864;8.550;2022-10-16T19:08:05;16.30;99.90
10089;DHT22;51898;49.864;8.550;2022-10-16T19:11:10;16.20;99.90
10089;DHT22;51898;49.864;8.550;2022-10-16T19:14:14;16.10;99.90
10089;DHT22;51898;49.864;8.550;2022-10-16T19:17:16;16.10;99.90
10089;DHT22;51898;49.864;8.550;2022-10-16T19:20:17;16.10;99.90
10089;DHT22;51898;49.864;8.550;2022-10-16T19:23:19;16.10;99.90
10089;DHT22;51898;49.864;8.550;2022-10-16T19:26:21;16.10;99.90
10089;DHT22;51898;49.864;8.550;2022-10-16T19:29:23;16.00;99.90
10089;DHT22;51898;49.864;8.550;2022-10-16T19:32:25;15.90;99.90
10089;DHT22;51898;49.864;8.550;2022-10-16T19:35:27;15.80;99.90
10089;DHT22;51898;49.864;8.550;2022-10-16T19:38:29;15.90;99.90
10089;DHT22;51898;49.864;8.550;2022-10-16T19:41:31;15.80;99.90
10089;DHT22;51898;49.864;8.550;2022-10-16T19:44:32;15.80;99.90
10089;DHT22;51898;49.864;8.550;2022-10-16T19:47:34;15.70;99.90
10089;DHT22;51898;49.864;8.550;2022-10-16T19:50:44;15.70;99.90
10089;DHT22;51898;49.864;8.550;2022-10-16T19:53:47;15.50;99.90
10089;DHT22;51898;49.864;8.550;2022-10-16T19:56:49;15.30;99.90
10089;DHT22;51898;49.864;8.550;2022-10-16T19:59:52;15.30;99.90
10089;DHT22;51898;49.864;8.550;2022-10-16T20:02:53;15.20;99.90
10089;DHT22;51898;49.864;8.550;2022-10-16T20:05:56;15.20;99.90
10089;DHT22;51898;49.864;8.550;2022-10-16T20:08:57;15.20;99.90
10089;DHT22;51898;49.864;8.550;2022-10-16T20:11:59;15.10;99.90
10089;DHT22;51898;49.864;8.550;2022-10-16T20:15:01;15.10;99.90
10089;DHT22;51898;49.864;8.550;2022-10-16T20:18:04;15.00;99.90
10089;DHT22;51898;49.864;8.550;2022-10-16T20:21:10;15.00;99.90
10089;DHT22;51898;49.864;8.550;2022-10-16T20:24:12;15.00;99.90
10089;DHT22;51898;49.864;8.550;2022-10-16T20:27:13;15.00;99.90
10089;DHT22;51898;49.864;8.550;2022-10-16T20:30:15;15.00;99.90
10089;DHT22;51898;49.864;8.550;2022-10-16T20:33:16;14.90;99.90
10089;DHT22;51898;49.864;8.550;2022-10-16T20:36:20;14.90;99.90
10089;DHT22;51898;49.864;8.550;2022-10-16T20:39:21;14.90;99.90
10089;DHT22;51898;49.864;8.550;2022-10-16T20:42:23;14.90;99.90
10089;DHT22;51898;49.864;8.550;2022-10-16T20:45:25;14.90;99.90
10089;DHT22;51898;49.864;8.550;2022-10-16T20:48:30;14.90;99.90